Terminal Aerodrome Forecast
Issued by NWS Wilmington, NC

Home | Current Version | Previous Version | Text Only | Print | Product List | Glossary On
Versions: 1 2 3 4 5 6 7 8 9 10 11 12 13 14 15 16 17 18 19 20 21 22 23 24 25 26 27 28 29
000
FTUS42 KILM 051100
TAFILM
TAF
KILM 051131Z 0512/0612 21011G15KT P6SM SCT010 SCT250 WS010/22035KT
     FM051400 23014G24KT P6SM SCT015 SCT025 SCT050
     FM052200 01014G26KT 5SM -SHRA BR SCT007 OVC012
     FM060300 36016G27KT 4SM -RA BR BKN007 OVC025=

USA.gov is the U.S. government's official web portal to all federal, state and local government web resources and services.